createdAt,value
2022-10-13T00:01:22.006Z,4.10
2022-10-13T00:03:50.509Z,4.30
2022-10-13T00:06:25.167Z,4.03
2022-10-13T00:08:53.719Z,4.13
2022-10-13T00:11:23.889Z,4.07
2022-10-13T00:13:53.081Z,4.57
2022-10-13T00:16:21.639Z,4.03
2022-10-13T00:18:50.083Z,5.63
2022-10-13T00:21:20.219Z,5.50
2022-10-13T00:23:51.110Z,5.53
2022-10-13T00:26:22.038Z,5.57
2022-10-13T00:28:52.782Z,6.13
2022-10-13T00:31:28.418Z,5.70
2022-10-13T00:33:57.563Z,5.53
2022-10-13T00:36:25.963Z,5.43
2022-10-13T00:38:54.382Z,5.63
2022-10-13T00:41:22.884Z,5.77
2022-10-13T00:44:02.092Z,5.77
2022-10-13T00:46:31.982Z,6.07
2022-10-13T00:49:08.662Z,6.23
2022-10-13T00:51:41.326Z,5.37
2022-10-13T00:54:10.522Z,5.67
2022-10-13T00:56:38.951Z,5.70
2022-10-13T00:59:12.634Z,5.63
2022-10-13T01:01:42.644Z,5.57
2022-10-13T01:04:11.046Z,6.07
2022-10-13T01:06:39.430Z,6.37
2022-10-13T01:09:09.492Z,5.90
2022-10-13T01:12:00.300Z,5.70
2022-10-13T01:14:37.251Z,5.83
2022-10-13T01:17:40.898Z,5.87
2022-10-13T01:20:34.698Z,5.70
2022-10-13T01:23:33.812Z,6.57
2022-10-13T01:26:02.171Z,6.27
2022-10-13T01:28:48.392Z,6.27
2022-10-13T01:31:42.499Z,5.70
2022-10-13T01:34:22.440Z,5.80
2022-10-13T01:37:03.949Z,6.03
2022-10-13T01:39:50.449Z,5.90
2022-10-13T01:42:22.317Z,5.00
2022-10-13T01:44:59.585Z,4.73
2022-10-13T01:47:27.945Z,5.67
2022-10-13T01:49:56.373Z,5.23
2022-10-13T01:52:26.468Z,5.17
2022-10-13T01:54:54.786Z,5.43
2022-10-13T01:57:30.969Z,4.83
2022-10-13T02:00:07.052Z,5.80
2022-10-13T02:02:58.867Z,5.87
2022-10-13T02:06:07.617Z,5.67
2022-10-13T02:09:02.178Z,4.97
2022-10-13T02:11:30.820Z,5.73
2022-10-13T02:14:04.792Z,6.00
2022-10-13T02:16:36.609Z,5.67
2022-10-13T02:19:05.686Z,5.13
2022-10-13T02:21:35.559Z,5.07
2022-10-13T02:24:04.659Z,4.70
2022-10-13T02:26:33.438Z,5.10
2022-10-13T02:29:12.196Z,5.53
2022-10-13T02:31:40.942Z,4.60
2022-10-13T02:34:09.291Z,5.03
2022-10-13T02:36:40.622Z,4.77
2022-10-13T02:39:09.909Z,4.27
2022-10-13T02:41:38.444Z,4.83
2022-10-13T02:44:06.992Z,4.77
2022-10-13T02:46:35.721Z,4.17
2022-10-13T02:49:04.102Z,4.30
2022-10-13T02:51:35.150Z,4.87
2022-10-13T02:54:07.469Z,4.40
2022-10-13T02:56:35.864Z,4.50
2022-10-13T02:59:04.308Z,4.70
2022-10-13T03:01:33.327Z,4.00
2022-10-13T03:04:01.628Z,4.40
2022-10-13T03:06:29.978Z,3.90
2022-10-13T03:08:58.258Z,4.43
2022-10-13T03:11:26.590Z,4.47
2022-10-13T03:13:55.048Z,4.00
2022-10-13T03:16:23.480Z,4.43
2022-10-13T03:18:51.856Z,3.80
2022-10-13T03:21:20.191Z,4.53
2022-10-13T03:23:48.629Z,4.23
2022-10-13T03:26:17.018Z,4.23
2022-10-13T03:28:51.865Z,3.80
2022-10-13T03:31:20.351Z,4.70
2022-10-13T03:33:48.859Z,3.90
2022-10-13T03:36:17.134Z,4.60
2022-10-13T03:38:47.733Z,4.00
2022-10-13T03:41:17.746Z,4.90
2022-10-13T03:43:51.094Z,5.23
2022-10-13T03:46:19.480Z,6.30
2022-10-13T03:48:48.385Z,6.23
2022-10-13T03:51:20.341Z,6.17
2022-10-13T03:53:50.719Z,5.97
2022-10-13T03:56:21.240Z,5.60
2022-10-13T03:58:57.173Z,5.87
2022-10-13T04:01:27.215Z,6.47
2022-10-13T04:03:55.957Z,5.87
2022-10-13T04:06:24.734Z,5.90
2022-10-13T04:08:53.103Z,5.57
2022-10-13T04:11:21.571Z,5.77
2022-10-13T04:13:53.544Z,5.60
2022-10-13T04:16:26.530Z,5.50
2022-10-13T04:19:02.373Z,6.70
2022-10-13T04:21:31.415Z,11.07
2022-10-13T04:23:59.993Z,8.27
2022-10-13T04:26:29.569Z,9.10
2022-10-13T04:29:00.094Z,10.50
2022-10-13T04:31:29.130Z,8.23
2022-10-13T04:33:57.668Z,6.87
2022-10-13T04:36:26.184Z,7.43
2022-10-13T04:38:55.181Z,5.90
2022-10-13T04:41:23.957Z,5.83
2022-10-13T04:43:52.869Z,6.30
2022-10-13T04:46:26.539Z,7.40
2022-10-13T04:48:56.166Z,7.37
2022-10-13T04:51:30.393Z,10.97
2022-10-13T04:53:59.542Z,9.93
2022-10-13T04:56:28.135Z,9.37
2022-10-13T04:59:01.958Z,8.97
2022-10-13T05:01:30.490Z,8.63
2022-10-13T05:04:00.857Z,8.87
2022-10-13T05:06:31.469Z,6.57
2022-10-13T05:08:59.963Z,6.57
2022-10-13T05:11:28.784Z,6.60
2022-10-13T05:13:57.952Z,7.47
2022-10-13T05:16:26.531Z,8.23
2022-10-13T05:18:55.248Z,9.97
2022-10-13T05:21:25.926Z,8.10
2022-10-13T05:23:55.886Z,7.20
2022-10-13T05:26:29.594Z,5.87
2022-10-13T05:29:01.093Z,5.60
2022-10-13T05:31:32.181Z,6.13
2022-10-13T05:34:01.324Z,6.83
2022-10-13T05:36:33.868Z,6.73
2022-10-13T05:39:04.486Z,6.10
2022-10-13T05:41:32.836Z,8.93
2022-10-13T05:44:02.377Z,6.90
2022-10-13T05:46:31.052Z,7.10
2022-10-13T05:48:59.413Z,5.43
2022-10-13T05:51:38.832Z,5.97
2022-10-13T05:54:21.087Z,5.63
2022-10-13T05:56:53.485Z,6.73
2022-10-13T05:59:26.768Z,6.33
2022-10-13T06:01:55.809Z,6.67
2022-10-13T06:04:30.847Z,6.37
2022-10-13T06:06:59.675Z,6.23
2022-10-13T06:09:35.975Z,5.17
2022-10-13T06:12:05.707Z,5.50
2022-10-13T06:14:34.209Z,5.77
2022-10-13T06:17:07.890Z,5.17
2022-10-13T06:19:40.617Z,5.50
2022-10-13T06:22:10.643Z,5.73
2022-10-13T06:24:40.285Z,6.37
2022-10-13T06:27:11.563Z,7.13
2022-10-13T06:29:40.450Z,6.60
2022-10-13T06:32:10.416Z,6.67
2022-10-13T06:34:39.080Z,6.50
2022-10-13T06:37:07.519Z,6.50
2022-10-13T06:39:35.899Z,5.93
2022-10-13T06:42:05.280Z,7.03
2022-10-13T06:44:39.068Z,6.70
2022-10-13T06:47:07.482Z,7.27
2022-10-13T06:49:35.980Z,6.83
2022-10-13T06:52:05.233Z,6.87
2022-10-13T06:54:36.556Z,6.97
2022-10-13T06:57:06.799Z,6.87
2022-10-13T06:59:35.226Z,7.73
2022-10-13T07:02:03.785Z,5.87
2022-10-13T07:04:32.233Z,6.50
2022-10-13T07:07:00.588Z,6.87
2022-10-13T07:09:29.053Z,6.10
2022-10-13T07:11:57.480Z,6.93
2022-10-13T07:14:25.977Z,7.67
2022-10-13T07:16:54.846Z,6.60
2022-10-13T07:19:23.211Z,7.33
2022-10-13T07:21:52.097Z,7.93
2022-10-13T07:24:21.420Z,7.63
2022-10-13T07:26:50.568Z,7.13
2022-10-13T07:29:19.170Z,7.27
2022-10-13T07:31:47.664Z,7.47
2022-10-13T07:34:17.066Z,7.70
2022-10-13T07:36:45.456Z,8.17
2022-10-13T07:39:15.644Z,7.83
2022-10-13T07:41:47.522Z,7.40
2022-10-13T07:44:19.249Z,8.20
2022-10-13T07:46:48.227Z,7.80
2022-10-13T07:49:16.861Z,7.80
2022-10-13T07:51:45.349Z,7.30
2022-10-13T07:54:14.269Z,7.43
2022-10-13T07:56:42.757Z,7.57
2022-10-13T07:59:11.490Z,7.33
2022-10-13T08:01:41.391Z,6.37
2022-10-13T08:04:09.860Z,6.63
2022-10-13T08:06:38.411Z,6.87
2022-10-13T08:09:10.118Z,6.53
2022-10-13T08:11:40.381Z,7.97
2022-10-13T08:14:10.311Z,7.07
2022-10-13T08:16:40.751Z,7.43
2022-10-13T08:19:09.258Z,7.37
2022-10-13T08:21:57.683Z,7.83
2022-10-13T08:24:27.017Z,7.30
2022-10-13T08:26:55.742Z,7.30
2022-10-13T08:29:24.650Z,7.20
2022-10-13T08:31:53.829Z,6.10
2022-10-13T08:34:23.483Z,6.60
2022-10-13T08:36:54.787Z,6.10
2022-10-13T08:39:24.693Z,6.50
2022-10-13T08:41:53.283Z,6.93
2022-10-13T08:44:59.540Z,6.30
2022-10-13T08:47:19.550Z,6.70
2022-10-13T08:49:48.169Z,6.27
2022-10-13T08:52:27.489Z,7.83
2022-10-13T08:54:56.472Z,6.73
2022-10-13T08:57:25.598Z,7.40
2022-10-13T08:59:54.647Z,7.13
2022-10-13T09:02:30.670Z,5.90
2022-10-13T09:04:59.961Z,5.40
2022-10-13T09:07:35.622Z,5.50
2022-10-13T09:10:04.465Z,5.40
2022-10-13T09:12:34.225Z,5.83
2022-10-13T09:15:13.059Z,5.85
2022-10-13T09:17:41.725Z,6.13
2022-10-13T09:20:19.160Z,5.90
2022-10-13T09:23:06.575Z,5.43
2022-10-13T09:25:50.810Z,5.60
2022-10-13T09:28:29.285Z,5.67
2022-10-13T09:31:24.063Z,5.47
2022-10-13T09:34:23.338Z,6.60
2022-10-13T09:37:05.118Z,10.95
2022-10-13T09:39:33.951Z,6.38
2022-10-13T09:42:24.312Z,6.55
2022-10-13T09:44:58.764Z,4.95
2022-10-13T09:47:27.537Z,5.38
2022-10-13T09:50:26.740Z,5.47
2022-10-13T09:53:20.012Z,4.55
2022-10-13T09:55:50.038Z,5.32
2022-10-13T09:58:27.326Z,5.13
2022-10-13T10:00:56.084Z,4.72
2022-10-13T10:03:32.966Z,5.28
2022-10-13T10:06:06.273Z,4.90
2022-10-13T10:09:08.635Z,4.22
2022-10-13T10:11:41.985Z,4.53
2022-10-13T10:14:26.729Z,4.28
2022-10-13T10:17:04.086Z,3.92
2022-10-13T10:19:47.509Z,4.03
2022-10-13T10:22:15.967Z,4.25
2022-10-13T10:24:52.921Z,3.78
2022-10-13T10:27:40.006Z,3.63
2022-10-13T10:30:20.684Z,3.63
2022-10-13T10:33:09.619Z,3.35
2022-10-13T10:35:44.566Z,3.63
2022-10-13T10:38:47.039Z,3.10
2022-10-13T10:41:54.633Z,2.85
2022-10-13T10:44:29.059Z,3.42
2022-10-13T10:47:02.139Z,3.25
2022-10-13T10:49:35.194Z,3.40
2022-10-13T10:52:06.886Z,3.10
2022-10-13T10:54:48.338Z,3.85
2022-10-13T10:57:38.983Z,3.97
2022-10-13T11:00:18.289Z,3.30
2022-10-13T11:02:49.331Z,2.53
2022-10-13T11:05:18.111Z,3.08
2022-10-13T11:07:46.843Z,2.88
2022-10-13T11:10:16.904Z,2.88
2022-10-13T11:12:46.237Z,2.83
2022-10-13T11:15:17.067Z,2.53
2022-10-13T11:17:45.510Z,2.80
2022-10-13T11:20:22.627Z,2.85
2022-10-13T11:23:00.004Z,2.78
2022-10-13T11:25:43.925Z,3.35
2022-10-13T11:28:23.765Z,3.13
2022-10-13T11:30:55.751Z,2.63
2022-10-13T11:33:39.437Z,2.60
2022-10-13T11:36:40.230Z,3.03
2022-10-13T11:39:28.113Z,3.13
2022-10-13T11:42:12.180Z,2.33
2022-10-13T11:44:57.632Z,2.70
2022-10-13T11:47:54.691Z,2.67
2022-10-13T11:50:44.520Z,2.60
2022-10-13T11:53:19.228Z,2.50
2022-10-13T11:55:52.429Z,3.13
2022-10-13T11:58:25.824Z,2.35
2022-10-13T12:00:57.024Z,2.33
2022-10-13T12:03:39.148Z,2.22
2022-10-13T12:06:54.034Z,2.90
2022-10-13T12:09:22.495Z,2.95
2022-10-13T12:12:12.293Z,2.60
2022-10-13T12:14:43.633Z,2.78
2022-10-13T12:17:43.533Z,2.58
2022-10-13T12:20:23.869Z,2.60
2022-10-13T12:22:52.812Z,2.33
2022-10-13T12:25:30.830Z,2.45
2022-10-13T12:28:00.539Z,2.20
2022-10-13T12:30:31.206Z,2.45
2022-10-13T12:33:00.942Z,2.25
2022-10-13T12:35:31.455Z,2.20
2022-10-13T12:38:06.187Z,2.42
2022-10-13T12:40:36.461Z,2.53
2022-10-13T12:43:05.697Z,2.45
2022-10-13T12:45:35.180Z,2.20
2022-10-13T12:48:07.191Z,2.08
2022-10-13T12:50:37.155Z,2.28
2022-10-13T12:53:10.958Z,2.10
2022-10-13T12:55:51.358Z,2.80
2022-10-13T12:58:41.297Z,2.22
2022-10-13T13:01:20.155Z,2.40
2022-10-13T13:03:55.073Z,2.75
2022-10-13T13:06:31.310Z,2.08
2022-10-13T13:09:12.695Z,2.50
2022-10-13T13:11:41.926Z,2.90
2022-10-13T13:14:39.232Z,2.75
2022-10-13T13:20:47.004Z,2.30
2022-10-13T13:23:19.097Z,2.42
2022-10-13T13:25:47.919Z,2.78
2022-10-13T13:28:16.575Z,2.15
2022-10-13T13:30:45.206Z,1.95
2022-10-13T13:33:13.634Z,2.55
2022-10-13T13:35:42.084Z,2.28
2022-10-13T13:38:10.710Z,2.65
2022-10-13T13:40:38.982Z,2.40
2022-10-13T13:43:08.849Z,2.90
2022-10-13T13:45:37.212Z,2.42
2022-10-13T13:48:09.846Z,2.28
2022-10-13T13:50:38.662Z,2.38
2022-10-13T13:53:07.133Z,2.42
2022-10-13T13:55:36.637Z,2.30
2022-10-13T13:58:07.082Z,2.15
2022-10-13T14:00:35.677Z,2.38
2022-10-13T14:03:04.225Z,2.78
2022-10-13T14:05:32.732Z,2.38
2022-10-13T14:08:02.538Z,2.92
2022-10-13T14:10:30.924Z,2.28
2022-10-13T14:12:59.364Z,2.45
2022-10-13T14:15:29.881Z,2.47
2022-10-13T14:17:58.909Z,2.15
2022-10-13T14:20:27.680Z,2.20
2022-10-13T14:22:56.197Z,2.13
2022-10-13T14:25:25.098Z,2.70
2022-10-13T14:27:53.682Z,2.47
2022-10-13T14:30:25.560Z,2.60
2022-10-13T14:32:54.367Z,2.33
2022-10-13T14:35:24.461Z,2.42
2022-10-13T14:37:52.999Z,2.03
2022-10-13T14:40:21.350Z,1.88
2022-10-13T14:42:49.745Z,2.28
2022-10-13T14:45:18.413Z,2.20
2022-10-13T14:47:46.883Z,2.28
2022-10-13T14:50:15.428Z,2.80
2022-10-13T14:52:45.380Z,2.17
2022-10-13T14:55:13.869Z,1.85
2022-10-13T14:57:44.798Z,2.55
2022-10-13T15:00:18.560Z,2.10
2022-10-13T15:02:49.818Z,2.17
2022-10-13T15:05:20.409Z,2.05
2022-10-13T15:07:50.016Z,1.90
2022-10-13T15:10:21.633Z,2.17
2022-10-13T15:12:51.070Z,1.65
2022-10-13T15:15:20.050Z,1.80
2022-10-13T15:17:49.299Z,1.83
2022-10-13T15:20:18.451Z,2.20
2022-10-13T15:22:48.046Z,1.88
2022-10-13T15:25:16.627Z,2.15
2022-10-13T15:27:44.998Z,2.10
2022-10-13T15:30:13.850Z,2.25
2022-10-13T15:32:43.349Z,1.70
2022-10-13T15:35:14.303Z,1.60
2022-10-13T15:37:42.875Z,2.17
2022-10-13T15:40:14.649Z,2.25
2022-10-13T15:42:43.065Z,2.28
2022-10-13T15:45:12.548Z,2.38
2022-10-13T15:47:41.083Z,2.20
2022-10-13T15:50:11.352Z,2.15
2022-10-13T15:52:40.650Z,2.00
2022-10-13T15:55:10.958Z,2.03
2022-10-13T15:57:40.479Z,2.00
2022-10-13T16:00:12.075Z,1.80
2022-10-13T16:02:41.528Z,2.28
2022-10-13T16:05:13.798Z,3.28
2022-10-13T16:07:46.432Z,3.05
2022-10-13T16:10:16.863Z,2.90
2022-10-13T16:12:49.447Z,2.83
2022-10-13T16:15:18.415Z,3.20
2022-10-13T16:17:49.215Z,2.40
2022-10-13T16:20:17.658Z,2.83
2022-10-13T16:22:46.479Z,3.10
2022-10-13T16:25:15.302Z,3.85
2022-10-13T16:27:44.856Z,3.43
2022-10-13T16:30:14.066Z,3.17
2022-10-13T16:32:42.837Z,3.90
2022-10-13T16:35:12.667Z,4.13
2022-10-13T16:37:43.312Z,3.90
2022-10-13T16:40:14.465Z,4.30
2022-10-13T16:42:44.476Z,5.63
2022-10-13T16:45:14.267Z,8.73
2022-10-13T16:47:46.536Z,7.18
2022-10-13T16:50:18.231Z,7.25
2022-10-13T16:52:49.219Z,8.07
2022-10-13T16:55:18.719Z,8.73
2022-10-13T16:57:48.760Z,8.83
2022-10-13T17:00:24.827Z,8.90
2022-10-13T17:02:54.753Z,7.13
2022-10-13T17:05:23.276Z,6.60
2022-10-13T17:07:53.743Z,6.50
2022-10-13T17:10:23.372Z,7.03
2022-10-13T17:12:56.163Z,7.57
2022-10-13T17:15:24.677Z,6.13
2022-10-13T17:17:55.113Z,6.63
2022-10-13T17:20:28.349Z,7.13
2022-10-13T17:22:59.049Z,6.77
2022-10-13T17:25:33.083Z,7.73
2022-10-13T17:28:08.856Z,10.63
2022-10-13T17:30:39.795Z,11.53
2022-10-13T17:33:15.290Z,14.20
2022-10-13T17:35:48.743Z,16.20
2022-10-13T17:38:17.316Z,15.80
2022-10-13T17:40:47.382Z,15.43
2022-10-13T17:43:18.799Z,14.63
2022-10-13T17:45:48.936Z,12.70
2022-10-13T17:48:27.840Z,11.83
2022-10-13T17:53:49.468Z,10.40
2022-10-13T17:56:31.636Z,10.60
2022-10-13T17:59:12.143Z,9.30
2022-10-13T18:01:48.677Z,7.47
2022-10-13T18:04:24.135Z,7.20
2022-10-13T18:06:53.165Z,7.63
2022-10-13T18:09:23.592Z,6.50
2022-10-13T18:11:54.520Z,7.77
2022-10-13T18:14:26.846Z,8.13
2022-10-13T18:17:01.053Z,8.67
2022-10-13T18:19:30.792Z,9.40
2022-10-13T18:22:05.181Z,13.23
2022-10-13T18:24:35.124Z,12.53
2022-10-13T18:27:05.486Z,9.67
2022-10-13T18:29:43.783Z,8.17
2022-10-13T18:32:13.351Z,7.00
2022-10-13T18:34:43.805Z,7.47
2022-10-13T18:37:15.437Z,6.90
2022-10-13T18:39:45.055Z,7.43
2022-10-13T18:42:14.655Z,6.07
2022-10-13T18:44:46.842Z,6.00
2022-10-13T18:47:15.578Z,5.57
2022-10-13T18:49:43.988Z,5.33
2022-10-13T18:52:13.218Z,5.60
2022-10-13T18:54:51.418Z,5.57
2022-10-13T18:57:23.780Z,5.70
2022-10-13T18:59:54.222Z,9.93
2022-10-13T19:02:30.841Z,8.87
2022-10-13T19:04:59.580Z,11.00
2022-10-13T19:07:28.599Z,12.57
2022-10-13T19:10:00.131Z,10.30
2022-10-13T19:12:28.667Z,13.57
2022-10-13T19:15:00.780Z,15.47
2022-10-13T19:17:31.003Z,14.67
2022-10-13T19:20:00.388Z,14.47
2022-10-13T19:22:29.193Z,16.13
2022-10-13T19:25:01.948Z,18.33
2022-10-13T19:27:30.379Z,16.83
2022-10-13T19:29:59.215Z,15.53
2022-10-13T19:32:30.083Z,13.63
2022-10-13T19:34:58.816Z,13.50
2022-10-13T19:37:28.730Z,13.23
2022-10-13T19:39:57.334Z,11.50
2022-10-13T19:42:26.508Z,11.37
2022-10-13T19:44:55.167Z,11.90
2022-10-13T19:47:23.897Z,9.33
2022-10-13T19:49:52.921Z,9.23
2022-10-13T19:52:24.044Z,9.43
2022-10-13T19:54:53.013Z,12.77
2022-10-13T19:57:21.694Z,14.30
2022-10-13T19:59:51.512Z,13.47
2022-10-13T20:02:20.201Z,15.30
2022-10-13T20:04:49.116Z,20.57
2022-10-13T20:07:17.706Z,30.07
2022-10-13T20:09:46.529Z,31.97
2022-10-13T20:12:15.113Z,29.70
2022-10-13T20:14:48.309Z,25.20
2022-10-13T20:17:16.931Z,24.67
2022-10-13T20:19:45.371Z,23.50
2022-10-13T20:22:14.052Z,21.57
2022-10-13T20:24:42.938Z,18.40
2022-10-13T20:27:11.529Z,13.80
2022-10-13T20:29:40.437Z,9.53
2022-10-13T20:32:09.054Z,8.10
2022-10-13T20:34:37.699Z,5.63
2022-10-13T20:37:06.327Z,9.67
2022-10-13T20:39:35.111Z,13.43
2022-10-13T20:42:04.211Z,15.83
2022-10-13T20:44:32.919Z,14.67
2022-10-13T20:47:02.472Z,16.13
2022-10-13T20:49:32.028Z,13.80
2022-10-13T20:52:00.431Z,14.90
2022-10-13T20:54:37.217Z,13.90
2022-10-13T20:57:06.100Z,13.20
2022-10-13T20:59:34.616Z,13.00
2022-10-13T21:02:03.839Z,16.17
2022-10-13T21:04:32.592Z,14.77
2022-10-13T21:07:01.351Z,12.53
2022-10-13T21:09:30.949Z,9.87
2022-10-13T21:11:59.468Z,9.00
2022-10-13T21:14:28.051Z,9.13
2022-10-13T21:16:56.431Z,9.40
2022-10-13T21:19:25.408Z,8.80
2022-10-13T21:21:53.711Z,8.17
2022-10-13T21:24:22.721Z,6.70
2022-10-13T21:26:51.126Z,5.50
2022-10-13T21:29:19.620Z,4.60
2022-10-13T21:31:48.252Z,4.83
2022-10-13T21:34:17.270Z,4.37
2022-10-13T21:36:45.922Z,4.57
2022-10-13T21:39:16.010Z,4.37
2022-10-13T21:41:44.407Z,4.13
2022-10-13T21:44:16.272Z,4.13
2022-10-13T21:46:45.241Z,3.90
2022-10-13T21:49:13.631Z,3.57
2022-10-13T21:51:42.253Z,3.67
2022-10-13T21:54:12.145Z,4.63
2022-10-13T21:56:41.182Z,4.93
2022-10-13T21:59:11.437Z,4.20
2022-10-13T22:01:39.997Z,3.43
2022-10-13T22:04:14.297Z,4.43
2022-10-13T22:06:43.183Z,3.73
2022-10-13T22:09:12.134Z,3.77
2022-10-13T22:11:41.532Z,3.70
2022-10-13T22:14:12.648Z,3.17
2022-10-13T22:16:49.057Z,3.63
2022-10-13T22:19:17.971Z,3.57
2022-10-13T22:21:47.896Z,3.43
2022-10-13T22:24:18.831Z,3.40
2022-10-13T22:26:47.730Z,3.20
2022-10-13T22:29:18.100Z,3.90
2022-10-13T22:31:47.029Z,5.47
2022-10-13T22:34:15.602Z,4.97
2022-10-13T22:36:45.006Z,5.30
2022-10-13T22:39:14.109Z,4.63
2022-10-13T22:41:42.499Z,4.20
2022-10-13T22:44:11.248Z,4.30
2022-10-13T22:46:39.702Z,4.63
2022-10-13T22:49:13.689Z,3.83
2022-10-13T22:51:42.443Z,3.80
2022-10-13T22:54:10.851Z,3.77
2022-10-13T22:56:40.167Z,3.90
2022-10-13T22:59:08.722Z,3.70
2022-10-13T23:01:37.420Z,3.60
2022-10-13T23:04:05.866Z,3.37
2022-10-13T23:06:34.600Z,3.43
2022-10-13T23:09:05.076Z,3.20
2022-10-13T23:11:34.067Z,3.50
2022-10-13T23:14:02.576Z,3.07
2022-10-13T23:16:30.970Z,3.37
2022-10-13T23:19:00.175Z,2.83
2022-10-13T23:21:29.431Z,3.80
2022-10-13T23:24:02.592Z,4.00
2022-10-13T23:26:31.056Z,3.60
2022-10-13T23:29:00.427Z,3.30
2022-10-13T23:31:29.391Z,3.00
2022-10-13T23:33:58.894Z,3.53
2022-10-13T23:36:29.248Z,5.20
2022-10-13T23:38:59.035Z,8.77
2022-10-13T23:41:27.691Z,9.23
2022-10-13T23:43:56.269Z,9.20
2022-10-13T23:46:24.701Z,10.03
2022-10-13T23:48:53.054Z,10.07
2022-10-13T23:51:23.450Z,10.33
2022-10-13T23:53:52.444Z,9.43
2022-10-13T23:56:20.847Z,8.20
2022-10-13T23:58:49.772Z,8.73
